createdAt,value
2022-12-05T00:02:17.247Z,77.65
2022-12-05T00:04:46.392Z,77.41
2022-12-05T00:07:14.830Z,77.56
2022-12-05T00:09:43.466Z,77.57
2022-12-05T00:12:12.374Z,77.59
2022-12-05T00:14:40.739Z,77.59
2022-12-05T00:17:09.177Z,77.26
2022-12-05T00:19:39.931Z,77.51
2022-12-05T00:22:09.010Z,77.52
2022-12-05T00:24:37.377Z,77.54
2022-12-05T00:27:06.785Z,77.53
2022-12-05T00:29:35.141Z,77.27
2022-12-05T00:32:04.383Z,77.39
2022-12-05T00:34:33.070Z,77.49
2022-12-05T00:37:02.822Z,77.35
2022-12-05T00:39:32.053Z,77.30
2022-12-05T00:42:00.439Z,77.29
2022-12-05T00:44:29.270Z,77.32
2022-12-05T00:46:57.664Z,77.17
2022-12-05T00:49:26.041Z,77.11
2022-12-05T00:51:55.675Z,77.10
2022-12-05T00:54:25.383Z,77.08
2022-12-05T00:56:56.278Z,77.01
2022-12-05T00:59:25.112Z,76.99
2022-12-05T01:01:53.632Z,76.92
2022-12-05T01:04:24.267Z,76.85
2022-12-05T01:06:57.407Z,76.89
2022-12-05T01:09:27.169Z,76.93
2022-12-05T01:11:55.982Z,76.94
2022-12-05T01:14:26.541Z,76.85
2022-12-05T01:16:56.850Z,76.96
2022-12-05T01:19:27.793Z,76.87
2022-12-05T01:21:56.688Z,76.82
2022-12-05T01:24:28.513Z,76.82
2022-12-05T01:26:57.353Z,76.73
2022-12-05T01:29:26.402Z,76.70
2022-12-05T01:31:55.089Z,76.73
2022-12-05T01:34:24.265Z,76.66
2022-12-05T01:36:53.033Z,76.77
2022-12-05T01:39:21.599Z,76.97
2022-12-05T01:41:52.283Z,76.83
2022-12-05T01:45:01.253Z,76.84
2022-12-05T01:47:32.444Z,77.00
2022-12-05T01:50:01.180Z,77.08
2022-12-05T01:52:32.456Z,77.05
2022-12-05T01:55:06.989Z,77.08
2022-12-05T01:57:37.406Z,77.12
2022-12-05T02:00:12.250Z,76.89
2022-12-05T02:02:42.886Z,76.92
2022-12-05T02:05:17.151Z,76.89
2022-12-05T02:07:48.300Z,76.99
2022-12-05T02:10:17.260Z,77.04
2022-12-05T02:12:48.197Z,77.21
2022-12-05T02:15:29.738Z,77.19
2022-12-05T02:18:10.832Z,77.19
2022-12-05T02:20:51.311Z,77.30
2022-12-05T02:24:12.944Z,77.35
2022-12-05T02:27:05.620Z,77.44
2022-12-05T02:30:00.070Z,77.42
2022-12-05T02:32:39.608Z,77.32
2022-12-05T02:35:17.832Z,77.44
2022-12-05T02:37:55.387Z,77.57
2022-12-05T02:40:31.386Z,77.48
2022-12-05T02:43:03.270Z,77.42
2022-12-05T02:45:39.210Z,77.44
2022-12-05T02:48:08.226Z,77.52
2022-12-05T02:50:40.257Z,77.61
2022-12-05T02:53:12.036Z,77.42
2022-12-05T02:55:42.926Z,77.47
2022-12-05T02:58:17.362Z,77.40
2022-12-05T03:00:51.134Z,77.43
2022-12-05T03:03:22.820Z,77.49
2022-12-05T03:05:58.407Z,77.45
2022-12-05T03:08:32.078Z,77.52
2022-12-05T03:11:03.492Z,77.65
2022-12-05T03:13:37.451Z,77.48
2022-12-05T03:16:12.603Z,77.69
2022-12-05T03:18:47.106Z,77.62
2022-12-05T03:21:23.409Z,77.43
2022-12-05T03:23:56.858Z,77.43
2022-12-05T03:26:37.932Z,77.35
2022-12-05T03:29:22.234Z,77.25
2022-12-05T03:32:02.075Z,77.42
2022-12-05T03:34:43.656Z,77.27
2022-12-05T03:37:16.594Z,77.21
2022-12-05T03:39:50.818Z,77.09
2022-12-05T03:42:30.187Z,77.24
2022-12-05T03:45:02.782Z,77.18
2022-12-05T03:47:40.497Z,77.10
2022-12-05T03:50:14.591Z,77.03
2022-12-05T03:53:18.210Z,77.03
2022-12-05T03:55:40.783Z,76.96
2022-12-05T03:58:16.083Z,76.97
2022-12-05T04:00:47.922Z,77.04
2022-12-05T04:03:24.181Z,77.04
2022-12-05T04:05:57.092Z,76.95
2022-12-05T04:08:29.355Z,76.96
2022-12-05T04:11:03.578Z,76.87
2022-12-05T04:13:36.257Z,76.88
2022-12-05T04:16:28.643Z,77.04
2022-12-05T04:19:04.411Z,76.88
2022-12-05T04:21:39.015Z,76.86
2022-12-05T04:24:27.863Z,76.81
2022-12-05T04:27:07.190Z,76.77
2022-12-05T04:29:42.444Z,76.78
2022-12-05T04:32:14.486Z,76.87
2022-12-05T04:34:51.816Z,76.84
2022-12-05T04:37:24.962Z,76.76
2022-12-05T04:39:57.959Z,76.99
2022-12-05T04:42:30.913Z,76.97
2022-12-05T04:45:04.350Z,76.94
2022-12-05T04:47:39.090Z,77.03
2022-12-05T04:50:12.136Z,77.08
2022-12-05T04:52:43.135Z,77.23
2022-12-05T04:55:14.813Z,77.11
2022-12-05T04:57:51.369Z,77.26
2022-12-05T05:00:20.157Z,77.21
2022-12-05T05:02:54.003Z,77.19
2022-12-05T05:05:25.040Z,77.19
2022-12-05T05:07:57.091Z,77.12
2022-12-05T05:10:34.285Z,77.23
2022-12-05T05:13:02.697Z,77.06
2022-12-05T05:15:31.506Z,77.01
2022-12-05T05:18:00.191Z,77.11
2022-12-05T05:20:29.962Z,77.06
2022-12-05T05:22:59.409Z,77.22
2022-12-05T05:25:27.772Z,77.04
2022-12-05T05:27:57.992Z,77.10
2022-12-05T05:30:26.634Z,77.02
2022-12-05T05:32:55.649Z,77.10
2022-12-05T05:35:24.094Z,77.11
2022-12-05T05:37:53.894Z,77.13
2022-12-05T05:40:22.229Z,77.17
2022-12-05T05:42:52.104Z,77.19
2022-12-05T05:45:20.962Z,77.20
2022-12-05T05:47:50.336Z,77.19
2022-12-05T05:50:21.681Z,77.35
2022-12-05T05:52:50.457Z,77.32
2022-12-05T05:55:21.814Z,77.33
2022-12-05T05:57:50.220Z,77.21
2022-12-05T06:00:20.142Z,77.12
2022-12-05T06:02:48.640Z,77.16
2022-12-05T06:05:17.732Z,76.97
2022-12-05T06:07:46.387Z,77.00
2022-12-05T06:10:15.064Z,77.08
2022-12-05T06:12:45.141Z,77.01
2022-12-05T06:15:13.999Z,77.19
2022-12-05T06:17:43.056Z,77.01
2022-12-05T06:20:12.319Z,76.98
2022-12-05T06:22:41.013Z,77.04
2022-12-05T06:25:10.835Z,77.05
2022-12-05T06:27:39.320Z,76.96
2022-12-05T06:30:10.805Z,77.03
2022-12-05T06:32:39.155Z,77.03
2022-12-05T06:35:15.579Z,77.01
2022-12-05T06:37:44.393Z,76.76
2022-12-05T06:40:14.262Z,76.98
2022-12-05T06:42:42.644Z,76.82
2022-12-05T06:45:13.457Z,76.89
2022-12-05T06:47:42.312Z,76.75
2022-12-05T06:50:11.453Z,76.82
2022-12-05T06:52:40.392Z,76.94
2022-12-05T06:55:09.294Z,76.93
2022-12-05T06:57:37.884Z,76.86
2022-12-05T07:00:25.370Z,76.88
2022-12-05T07:02:55.772Z,76.79
2022-12-05T07:05:24.271Z,76.91
2022-12-05T07:07:52.658Z,76.90
2022-12-05T07:10:21.570Z,76.88
2022-12-05T07:12:49.921Z,76.81
2022-12-05T07:15:19.226Z,76.89
2022-12-05T07:17:47.879Z,77.01
2022-12-05T07:20:18.344Z,76.98
2022-12-05T07:22:47.521Z,77.11
2022-12-05T07:25:16.939Z,77.37
2022-12-05T07:27:46.110Z,77.32
2022-12-05T07:30:14.993Z,77.16
2022-12-05T07:32:43.799Z,77.12
2022-12-05T07:35:12.620Z,77.00
2022-12-05T07:37:42.807Z,77.30
2022-12-05T07:40:14.683Z,77.70
2022-12-05T07:42:43.474Z,77.27
2022-12-05T07:45:12.657Z,77.20
2022-12-05T07:47:41.309Z,77.18
2022-12-05T07:50:10.922Z,77.05
2022-12-05T07:52:39.710Z,76.96
2022-12-05T07:55:10.724Z,76.88
2022-12-05T07:57:39.206Z,76.80
2022-12-05T08:00:08.711Z,76.99
2022-12-05T08:02:41.359Z,76.97
2022-12-05T08:05:10.761Z,76.77
2022-12-05T08:07:39.285Z,76.69
2022-12-05T08:10:10.656Z,76.76
2022-12-05T08:12:39.770Z,76.72
2022-12-05T08:15:10.600Z,76.72
2022-12-05T08:17:39.042Z,76.59
2022-12-05T08:20:09.622Z,76.61
2022-12-05T08:22:37.969Z,76.48
2022-12-05T08:25:07.595Z,76.61
2022-12-05T08:27:37.871Z,76.49
2022-12-05T08:30:07.864Z,76.45
2022-12-05T08:32:37.210Z,76.32
2022-12-05T08:35:06.530Z,76.28
2022-12-05T08:37:35.593Z,76.15
2022-12-05T08:40:04.856Z,76.12
2022-12-05T08:42:33.245Z,75.85
2022-12-05T08:45:03.538Z,75.83
2022-12-05T08:47:32.736Z,75.98
2022-12-05T08:50:01.179Z,75.83
2022-12-05T08:52:30.126Z,75.84
2022-12-05T08:54:59.926Z,75.86
2022-12-05T08:57:28.546Z,75.80
2022-12-05T08:59:57.367Z,75.81
2022-12-05T09:02:27.405Z,75.61
2022-12-05T09:05:01.709Z,75.65
2022-12-05T09:07:38.160Z,75.60
2022-12-05T09:10:08.096Z,75.65
2022-12-05T09:12:38.181Z,75.64
2022-12-05T09:15:09.130Z,75.58
2022-12-05T09:17:40.513Z,75.65
2022-12-05T09:20:11.734Z,75.64
2022-12-05T09:22:41.508Z,75.58
2022-12-05T09:25:10.646Z,75.51
2022-12-05T09:27:39.605Z,75.47
2022-12-05T09:30:09.555Z,75.45
2022-12-05T09:32:40.883Z,75.49
2022-12-05T09:35:09.972Z,75.32
2022-12-05T09:37:39.827Z,75.52
2022-12-05T09:40:16.362Z,75.36
2022-12-05T09:42:57.802Z,75.30
2022-12-05T09:45:35.738Z,75.26
2022-12-05T09:48:12.601Z,75.32
2022-12-05T09:50:46.636Z,75.13
2022-12-05T09:53:29.007Z,75.15
2022-12-05T09:56:03.219Z,75.09
2022-12-05T09:58:42.437Z,74.96
2022-12-05T10:01:25.492Z,75.19
2022-12-05T10:04:08.731Z,74.97
2022-12-05T10:06:42.714Z,75.04
2022-12-05T10:09:26.711Z,74.88
2022-12-05T10:12:01.121Z,74.85
2022-12-05T10:14:39.049Z,74.81
2022-12-05T10:17:16.585Z,74.99
2022-12-05T10:19:49.256Z,74.88
2022-12-05T10:22:24.705Z,74.82
2022-12-05T10:24:57.213Z,74.95
2022-12-05T10:27:40.314Z,74.76
2022-12-05T10:30:16.204Z,74.83
2022-12-05T10:32:53.540Z,74.97
2022-12-05T10:35:25.869Z,74.84
2022-12-05T10:37:57.911Z,74.94
2022-12-05T10:40:35.746Z,75.12
2022-12-05T10:43:06.377Z,75.10
2022-12-05T10:45:40.737Z,75.22
2022-12-05T10:48:13.784Z,75.26
2022-12-05T10:50:45.647Z,75.10
2022-12-05T10:53:18.287Z,75.25
2022-12-05T10:56:21.380Z,75.18
2022-12-05T10:58:38.782Z,75.35
2022-12-05T11:01:10.745Z,75.30
2022-12-05T11:03:41.641Z,75.32
2022-12-05T11:06:19.094Z,75.31
2022-12-05T11:09:09.510Z,75.33
2022-12-05T11:11:38.101Z,75.39
2022-12-05T11:14:08.949Z,75.53
2022-12-05T11:16:39.227Z,75.38
2022-12-05T11:19:27.472Z,75.42
2022-12-05T11:21:57.320Z,75.41
2022-12-05T11:24:30.161Z,75.37
2022-12-05T11:27:00.106Z,75.47
2022-12-05T11:29:35.189Z,75.54
2022-12-05T11:32:04.929Z,75.55
2022-12-05T11:34:40.866Z,75.60
2022-12-05T11:37:15.879Z,75.46
2022-12-05T11:39:44.499Z,75.66
2022-12-05T11:42:40.862Z,75.56
2022-12-05T11:45:32.382Z,75.55
2022-12-05T11:48:24.722Z,75.75
2022-12-05T11:51:12.707Z,75.96
2022-12-05T11:54:00.488Z,75.81
2022-12-05T11:56:39.088Z,75.67
2022-12-05T11:59:28.104Z,75.79
2022-12-05T12:02:02.683Z,75.72
2022-12-05T12:04:41.719Z,75.71
2022-12-05T12:07:26.170Z,75.69
2022-12-05T12:10:09.637Z,75.73
2022-12-05T12:12:50.735Z,75.63
2022-12-05T12:15:36.226Z,75.68
2022-12-05T12:18:14.469Z,75.62
2022-12-05T12:20:58.735Z,75.67
2022-12-05T12:24:04.241Z,75.94
2022-12-05T12:26:47.220Z,75.84
2022-12-05T12:29:27.357Z,75.72
2022-12-05T12:32:05.749Z,75.85
2022-12-05T12:34:56.941Z,75.95
2022-12-05T12:37:35.102Z,75.84
2022-12-05T12:40:15.740Z,75.70
2022-12-05T12:42:57.337Z,75.81
2022-12-05T12:45:39.650Z,75.70
2022-12-05T12:48:21.875Z,75.77
2022-12-05T12:50:53.688Z,75.77
2022-12-05T12:53:45.012Z,75.71
2022-12-05T12:56:26.424Z,75.63
2022-12-05T12:59:06.056Z,75.72
2022-12-05T13:01:41.464Z,75.80
2022-12-05T13:04:15.072Z,75.73
2022-12-05T13:06:49.157Z,75.70
2022-12-05T13:09:21.309Z,75.85
2022-12-05T13:11:52.068Z,75.80
2022-12-05T13:14:25.828Z,75.74
2022-12-05T13:16:57.055Z,75.86
2022-12-05T13:19:30.331Z,75.82
2022-12-05T13:22:00.172Z,75.93
2022-12-05T13:24:30.231Z,75.98
2022-12-05T13:27:01.400Z,75.92
2022-12-05T13:29:35.474Z,76.01
2022-12-05T13:32:06.933Z,75.93
2022-12-05T13:34:47.230Z,76.04
2022-12-05T13:37:42.395Z,76.13
2022-12-05T13:40:42.256Z,76.13
2022-12-05T13:43:12.670Z,76.19
2022-12-05T13:45:53.589Z,76.27
2022-12-05T13:48:26.838Z,76.33
2022-12-05T13:50:59.894Z,76.32
2022-12-05T13:53:37.530Z,76.26
2022-12-05T13:56:08.527Z,76.26
2022-12-05T13:58:50.222Z,76.37
2022-12-05T14:01:55.347Z,76.35
2022-12-05T14:04:44.526Z,76.40
2022-12-05T14:07:13.290Z,76.47
2022-12-05T14:09:55.209Z,76.48
2022-12-05T14:12:49.944Z,76.61
2022-12-05T14:15:33.000Z,76.47
2022-12-05T14:18:07.475Z,76.64
2022-12-05T14:21:04.805Z,76.80
2022-12-05T14:23:59.826Z,76.83
2022-12-05T14:26:40.430Z,76.91
2022-12-05T14:29:40.991Z,77.04
2022-12-05T14:32:23.592Z,77.08
2022-12-05T14:35:02.853Z,77.19
2022-12-05T14:37:34.514Z,77.21
2022-12-05T14:40:16.483Z,77.04
2022-12-05T14:42:54.077Z,77.27
2022-12-05T14:45:28.665Z,77.43
2022-12-05T14:47:59.177Z,77.52
2022-12-05T14:50:43.259Z,77.58
2022-12-05T14:53:20.249Z,77.63
2022-12-05T14:55:52.022Z,77.72
2022-12-05T14:58:27.112Z,77.73
2022-12-05T15:00:58.824Z,77.81
2022-12-05T15:03:33.430Z,77.87
2022-12-05T15:06:06.522Z,77.92
2022-12-05T15:08:45.365Z,77.99
2022-12-05T15:11:28.264Z,78.20
2022-12-05T15:14:01.617Z,78.28
2022-12-05T15:16:32.535Z,78.58
2022-12-05T15:19:07.173Z,78.45
2022-12-05T15:21:42.770Z,78.68
2022-12-05T15:24:14.584Z,78.82
2022-12-05T15:26:48.973Z,79.05
2022-12-05T15:29:26.713Z,79.00
2022-12-05T15:31:56.965Z,79.02
2022-12-05T15:34:30.274Z,78.91
2022-12-05T15:37:06.011Z,78.98
2022-12-05T15:39:55.055Z,78.96
2022-12-05T15:42:29.627Z,79.03
2022-12-05T15:45:18.371Z,78.91
2022-12-05T15:47:48.843Z,79.06
2022-12-05T15:50:22.279Z,78.98
2022-12-05T15:52:54.770Z,79.00
2022-12-05T15:55:28.553Z,78.93
2022-12-05T15:58:08.128Z,79.02
2022-12-05T16:00:44.077Z,78.86
2022-12-05T16:03:19.405Z,78.91
2022-12-05T16:05:53.292Z,78.93
2022-12-05T16:08:25.172Z,78.86
2022-12-05T16:10:53.785Z,78.84
2022-12-05T16:13:26.358Z,78.69
2022-12-05T16:15:55.952Z,78.80
2022-12-05T16:18:28.339Z,78.78
2022-12-05T16:20:57.563Z,78.74
2022-12-05T16:23:30.001Z,78.79
2022-12-05T16:26:22.231Z,78.84
2022-12-05T16:29:01.316Z,78.68
2022-12-05T16:31:30.525Z,78.96
2022-12-05T16:34:05.164Z,78.93
2022-12-05T16:36:34.882Z,78.97
2022-12-05T16:39:07.699Z,79.00
2022-12-05T16:41:37.348Z,78.94
2022-12-05T16:44:15.202Z,78.81
2022-12-05T16:46:47.412Z,78.82
2022-12-05T16:49:23.911Z,78.91
2022-12-05T16:52:00.495Z,78.89
2022-12-05T16:54:30.788Z,78.95
2022-12-05T16:57:01.720Z,78.91
2022-12-05T16:59:34.283Z,78.80
2022-12-05T17:02:05.265Z,78.74
2022-12-05T17:04:34.062Z,78.83
2022-12-05T17:07:02.852Z,78.63
2022-12-05T17:09:32.517Z,78.77
2022-12-05T17:12:04.404Z,78.72
2022-12-05T17:14:33.214Z,78.82
2022-12-05T17:17:01.595Z,78.79
2022-12-05T17:19:30.710Z,78.77
2022-12-05T17:21:59.166Z,78.71
2022-12-05T17:24:28.460Z,78.71
2022-12-05T17:26:58.629Z,78.85
2022-12-05T17:29:31.054Z,78.72
2022-12-05T17:32:03.086Z,78.68
2022-12-05T17:34:31.891Z,78.67
2022-12-05T17:37:00.330Z,78.67
2022-12-05T17:39:29.121Z,78.63
2022-12-05T17:41:59.910Z,78.50
2022-12-05T17:44:28.326Z,78.56
2022-12-05T17:46:57.217Z,78.51
2022-12-05T17:49:26.445Z,78.64
2022-12-05T17:54:43.717Z,78.51
2022-12-05T17:57:13.880Z,78.44
2022-12-05T17:59:42.274Z,78.41
2022-12-05T18:02:11.335Z,78.49
2022-12-05T18:04:40.338Z,78.48
2022-12-05T18:07:08.973Z,78.34
2022-12-05T18:09:37.312Z,78.29
2022-12-05T18:12:06.771Z,78.42
2022-12-05T18:14:36.862Z,78.62
2022-12-05T18:17:05.881Z,78.50
2022-12-05T18:19:35.185Z,78.47
2022-12-05T18:22:05.908Z,78.39
2022-12-05T18:24:34.237Z,78.42
2022-12-05T18:27:02.932Z,78.57
2022-12-05T18:29:31.286Z,78.49
2022-12-05T18:32:01.485Z,78.47
2022-12-05T18:34:29.950Z,78.52
2022-12-05T18:36:58.578Z,78.56
2022-12-05T18:39:27.340Z,78.49
2022-12-05T18:41:56.272Z,78.48
2022-12-05T18:44:24.843Z,78.54
2022-12-05T18:46:53.230Z,78.47
2022-12-05T18:49:22.979Z,78.49
2022-12-05T18:51:52.360Z,78.67
2022-12-05T18:54:20.773Z,78.51
2022-12-05T18:56:52.759Z,78.48
2022-12-05T18:59:22.689Z,78.61
2022-12-05T19:01:51.432Z,78.53
2022-12-05T19:04:21.618Z,78.61
2022-12-05T19:06:53.426Z,78.58
2022-12-05T19:09:23.487Z,78.65
2022-12-05T19:11:55.353Z,78.34
2022-12-05T19:14:24.978Z,78.51
2022-12-05T19:16:59.884Z,78.56
2022-12-05T19:19:29.605Z,78.50
2022-12-05T19:21:59.755Z,78.46
2022-12-05T19:24:28.143Z,78.45
2022-12-05T19:26:56.868Z,78.48
2022-12-05T19:29:25.864Z,78.40
2022-12-05T19:31:54.295Z,78.27
2022-12-05T19:34:24.519Z,78.44
2022-12-05T19:36:53.020Z,78.36
2022-12-05T19:39:27.143Z,78.34
2022-12-05T19:41:57.596Z,78.52
2022-12-05T19:44:26.593Z,78.35
2022-12-05T19:46:55.026Z,78.17
2022-12-05T19:49:24.315Z,78.31
2022-12-05T19:51:52.657Z,78.31
2022-12-05T19:54:22.442Z,78.15
2022-12-05T19:56:53.717Z,78.06
2022-12-05T19:59:22.601Z,78.04
2022-12-05T20:01:51.020Z,78.16
2022-12-05T20:04:19.894Z,77.97
2022-12-05T20:06:49.978Z,78.16
2022-12-05T20:09:22.306Z,78.14
2022-12-05T20:11:55.414Z,78.08
2022-12-05T20:14:26.401Z,78.17
2022-12-05T20:16:55.062Z,78.07
2022-12-05T20:19:24.390Z,77.98
2022-12-05T20:21:55.287Z,78.10
2022-12-05T20:24:24.118Z,77.95
2022-12-05T20:26:53.828Z,78.04
2022-12-05T20:29:22.743Z,78.09
2022-12-05T20:31:52.152Z,78.17
2022-12-05T20:34:21.314Z,78.19
2022-12-05T20:36:49.643Z,78.06
2022-12-05T20:39:19.298Z,77.99
2022-12-05T20:41:47.688Z,78.03
2022-12-05T20:44:18.118Z,78.06
2022-12-05T20:46:46.817Z,78.28
2022-12-05T20:49:15.686Z,78.13
2022-12-05T20:51:45.521Z,78.26
2022-12-05T20:54:16.693Z,78.22
2022-12-05T20:56:45.927Z,78.21
2022-12-05T20:59:15.634Z,78.20
2022-12-05T21:01:47.040Z,78.28
2022-12-05T21:04:16.093Z,78.20
2022-12-05T21:06:45.921Z,78.38
2022-12-05T21:09:26.738Z,78.43
2022-12-05T21:11:55.430Z,78.52
2022-12-05T21:14:24.458Z,78.46
2022-12-05T21:16:54.292Z,78.40
2022-12-05T21:19:23.797Z,78.34
2022-12-05T21:21:53.765Z,78.43
2022-12-05T21:24:22.925Z,78.35
2022-12-05T21:26:51.766Z,78.38
2022-12-05T21:29:20.386Z,78.40
2022-12-05T21:31:51.196Z,78.36
2022-12-05T21:34:22.124Z,78.37
2022-12-05T21:36:50.869Z,78.37
2022-12-05T21:39:19.846Z,78.46
2022-12-05T21:41:48.260Z,78.50
2022-12-05T21:44:17.388Z,78.48
2022-12-05T21:46:46.753Z,78.46
2022-12-05T21:49:15.802Z,78.45
2022-12-05T21:51:45.518Z,78.37
2022-12-05T21:54:14.329Z,78.37
2022-12-05T21:56:43.422Z,78.40
2022-12-05T21:59:12.231Z,78.42
2022-12-05T22:01:40.613Z,78.50
2022-12-05T22:04:09.526Z,78.46
2022-12-05T22:06:37.888Z,78.46
2022-12-05T22:09:08.417Z,78.23
2022-12-05T22:11:36.778Z,78.26
2022-12-05T22:14:05.113Z,78.37
2022-12-05T22:16:34.113Z,78.30
2022-12-05T22:19:03.339Z,78.15
2022-12-05T22:21:34.038Z,78.20
2022-12-05T22:24:02.902Z,78.38
2022-12-05T22:26:32.695Z,78.45
2022-12-05T22:29:01.432Z,78.37
2022-12-05T22:31:30.301Z,78.43
2022-12-05T22:33:58.875Z,78.39
2022-12-05T22:36:27.865Z,78.49
2022-12-05T22:38:56.236Z,78.35
2022-12-05T22:41:26.859Z,78.27
2022-12-05T22:43:58.456Z,78.26
2022-12-05T22:46:29.168Z,78.27
2022-12-05T22:48:58.363Z,78.24
2022-12-05T22:51:28.036Z,78.20
2022-12-05T22:53:57.798Z,78.27
2022-12-05T22:56:28.674Z,78.15
2022-12-05T22:59:00.614Z,78.16
2022-12-05T23:01:31.110Z,78.12
2022-12-05T23:04:01.335Z,78.11
2022-12-05T23:06:32.141Z,78.17
2022-12-05T23:09:01.767Z,78.03
2022-12-05T23:11:31.210Z,78.06
2022-12-05T23:14:02.511Z,78.07
2022-12-05T23:16:33.915Z,78.03
2022-12-05T23:19:05.360Z,77.83
2022-12-05T23:21:37.010Z,77.97
2022-12-05T23:24:08.622Z,77.92
2022-12-05T23:26:39.701Z,77.86
2022-12-05T23:29:11.963Z,77.69
2022-12-05T23:31:41.133Z,77.68
2022-12-05T23:34:10.370Z,77.76
2022-12-05T23:36:39.816Z,77.63
2022-12-05T23:39:08.351Z,77.66
2022-12-05T23:41:37.448Z,77.67
2022-12-05T23:44:06.165Z,77.63
2022-12-05T23:46:36.579Z,77.55
2022-12-05T23:49:05.177Z,77.56
2022-12-05T23:51:34.042Z,77.48
2022-12-05T23:54:04.331Z,77.39
2022-12-05T23:56:34.525Z,77.42
2022-12-05T23:59:06.279Z,77.55
